Time;durP1;ratioP1;P1;durP2;ratioP2;P2;SDS_P1;SDS_P2;PMS_P1;PMS_P2;Temp;Humidity;BMP_temperature;BMP_pressure;BME280_temperature;BME280_humidity;BME280_pressure;Samples;Min_cycle;Max_cycle;Signal;HPM_P1;HPM_P2
2022/10/01 00:00:51;;;;;;;4.50;2.70;;;10.10;99.90;;;;;;5028412;28;20489;-52
2022/10/01 00:03:19;;;;;;;3.53;2.50;;;10.30;99.90;;;;;;5028479;28;20454;-51
2022/10/01 00:05:46;;;;;;;4.43;2.33;;;10.40;99.90;;;;;;5028616;28;20523;-51
2022/10/01 00:08:15;;;;;;;1.90;1.77;;;10.50;99.90;;;;;;5028654;28;20447;-52
2022/10/01 00:10:42;;;;;;;3.13;2.37;;;10.60;99.90;;;;;;5028400;28;20883;-52
2022/10/01 00:13:09;;;;;;;3.53;2.60;;;10.70;99.90;;;;;;5028191;28;20451;-53
2022/10/01 00:15:39;;;;;;;3.50;2.20;;;10.80;99.90;;;;;;5028311;28;20847;-51
2022/10/01 00:18:09;;;;;;;2.30;2.10;;;10.80;99.90;;;;;;5028180;28;20527;-53
2022/10/01 00:20:39;;;;;;;2.97;2.67;;;10.90;99.90;;;;;;5027862;28;20553;-53
2022/10/01 00:23:05;;;;;;;3.07;2.57;;;10.90;99.90;;;;;;5027982;28;20448;-52
2022/10/01 00:25:32;;;;;;;2.83;2.57;;;10.90;99.90;;;;;;5028480;28;20454;-51
2022/10/01 00:27:59;;;;;;;2.60;2.40;;;10.90;99.90;;;;;;5028047;28;20821;-52
2022/10/01 00:30:26;;;;;;;3.13;2.80;;;10.90;99.90;;;;;;5028115;28;20549;-52
2022/10/01 00:32:53;;;;;;;3.20;2.73;;;10.90;99.90;;;;;;5027857;28;20530;-53
2022/10/01 00:35:22;;;;;;;3.77;2.10;;;10.90;99.90;;;;;;5027907;28;20484;-51
2022/10/01 00:37:51;;;;;;;2.97;2.67;;;11.00;99.90;;;;;;5027794;28;20449;-52
2022/10/01 00:40:19;;;;;;;2.90;2.60;;;11.00;99.90;;;;;;5028118;28;20516;-52
2022/10/01 00:42:47;;;;;;;3.63;2.80;;;11.00;99.90;;;;;;5028082;28;20457;-51
2022/10/01 00:45:15;;;;;;;2.77;2.57;;;11.00;99.90;;;;;;5027776;28;20531;-52
2022/10/01 00:47:49;;;;;;;2.50;2.30;;;10.60;99.90;;;;;;5027753;28;20450;-51
2022/10/01 00:50:20;;;;;;;4.40;2.40;;;10.50;99.90;;;;;;5027987;28;20555;-54
2022/10/01 00:52:51;;;;;;;3.47;2.33;;;10.50;99.90;;;;;;5028016;28;20536;-52
2022/10/01 00:55:23;;;;;;;2.80;2.20;;;10.40;99.90;;;;;;5027915;28;20482;-51
2022/10/01 00:57:50;;;;;;;3.00;2.23;;;10.50;99.90;;;;;;5027966;28;20474;-54
2022/10/01 01:00:18;;;;;;;4.50;2.20;;;10.30;99.90;;;;;;5027605;28;20971;-52
2022/10/01 01:02:44;;;;;;;2.80;2.20;;;10.40;99.90;;;;;;5027858;28;20538;-52
2022/10/01 01:05:12;;;;;;;2.30;2.10;;;10.40;99.90;;;;;;5027524;28;20449;-52
2022/10/01 01:07:43;;;;;;;3.80;2.20;;;10.60;99.90;;;;;;5027636;28;20914;-51
2022/10/01 01:10:13;;;;;;;2.50;2.30;;;10.60;99.90;;;;;;5027662;28;20495;-52
2022/10/01 01:12:54;;;;;;;4.50;2.10;;;10.60;99.90;;;;;;5027510;28;20443;-52
2022/10/01 01:15:26;;;;;;;2.30;2.10;;;10.70;99.90;;;;;;5031175;28;20573;-51
2022/10/01 01:17:57;;;;;;;2.20;1.80;;;10.70;99.90;;;;;;5031287;28;20465;-51
2022/10/01 01:20:52;;;;;;;3.23;2.07;;;10.80;99.90;;;;;;5030739;28;20569;-52
2022/10/01 01:23:43;;;;;;;2.60;2.40;;;10.90;99.90;;;;;;5032024;28;20458;-51
2022/10/01 01:26:21;;;;;;;3.00;2.33;;;10.90;99.90;;;;;;5031043;28;20526;-53
2022/10/01 01:28:51;;;;;;;2.60;2.07;;;10.90;99.90;;;;;;5030613;28;20442;-52
2022/10/01 01:31:24;;;;;;;3.73;2.50;;;10.80;99.90;;;;;;5031204;28;20538;-54
2022/10/01 01:33:54;;;;;;;3.17;2.20;;;10.80;99.90;;;;;;5030681;28;20499;-52
2022/10/01 01:36:26;;;;;;;2.60;2.33;;;10.80;99.90;;;;;;5031336;28;20474;-53
2022/10/01 01:38:58;;;;;;;3.10;2.70;;;10.80;99.90;;;;;;5030404;28;20438;-52
2022/10/01 01:41:29;;;;;;;2.50;2.10;;;10.80;99.90;;;;;;5030858;28;20446;-52
2022/10/01 01:44:01;;;;;;;2.67;2.30;;;10.70;99.90;;;;;;5030943;28;20439;-51
2022/10/01 01:46:30;;;;;;;2.53;1.93;;;10.80;99.90;;;;;;5030878;28;20443;-52
2022/10/01 01:48:59;;;;;;;2.57;2.37;;;10.80;99.90;;;;;;5030681;28;20456;-52
2022/10/01 01:51:33;;;;;;;2.90;1.93;;;10.80;99.90;;;;;;5031772;28;20447;-51
2022/10/01 01:54:00;;;;;;;3.83;2.87;;;10.90;99.90;;;;;;5030290;28;20534;-52
2022/10/01 01:56:28;;;;;;;3.97;2.03;;;10.90;99.90;;;;;;5030325;28;20482;-51
2022/10/01 01:58:56;;;;;;;3.87;2.33;;;10.90;99.90;;;;;;5030461;28;20457;-52
2022/10/01 02:01:38;;;;;;;2.53;2.30;;;10.90;99.90;;;;;;5030577;28;20857;-52
2022/10/01 02:04:09;;;;;;;2.90;2.70;;;10.90;99.90;;;;;;5030143;28;20445;-51
2022/10/01 02:06:48;;;;;;;4.27;3.87;;;10.90;99.90;;;;;;5030575;28;20447;-51
2022/10/01 02:09:23;;;;;;;2.70;2.30;;;10.90;99.90;;;;;;5030429;28;20470;-52
2022/10/01 02:12:00;;;;;;;3.00;2.60;;;10.90;99.90;;;;;;5030258;28;20959;-52
2022/10/01 02:14:35;;;;;;;3.60;2.23;;;10.90;99.90;;;;;;5030224;28;20453;-52
2022/10/01 02:17:12;;;;;;;2.77;2.50;;;10.90;99.90;;;;;;5030105;28;20848;-52
2022/10/01 02:19:45;;;;;;;2.67;2.47;;;10.70;99.90;;;;;;5030002;28;20562;-52
2022/10/01 02:22:13;;;;;;;2.70;2.50;;;10.70;99.90;;;;;;5030136;28;20531;-52
2022/10/01 02:24:45;;;;;;;3.77;3.00;;;10.80;99.90;;;;;;5029746;28;20442;-51
2022/10/01 02:27:16;;;;;;;2.57;2.30;;;10.80;99.90;;;;;;5030004;28;20527;-52
2022/10/01 02:29:45;;;;;;;3.10;2.80;;;10.80;99.90;;;;;;5030348;28;20462;-52
2022/10/01 02:32:16;;;;;;;3.13;2.60;;;10.80;99.90;;;;;;5029893;28;20533;-51
2022/10/01 02:34:44;;;;;;;2.63;2.43;;;10.80;99.90;;;;;;5029609;28;20832;-51
2022/10/01 02:37:12;;;;;;;2.30;2.10;;;10.80;99.90;;;;;;5029540;28;20475;-52
2022/10/01 02:39:41;;;;;;;3.30;2.47;;;10.80;99.90;;;;;;5029287;28;20891;-52
2022/10/01 02:42:10;;;;;;;3.40;2.93;;;10.80;99.90;;;;;;5029696;28;20445;-51
2022/10/01 02:44:41;;;;;;;3.70;2.13;;;10.70;99.90;;;;;;5029488;28;20473;-51
2022/10/01 02:47:12;;;;;;;3.30;2.27;;;10.50;99.90;;;;;;5029626;28;20448;-52
2022/10/01 02:49:41;;;;;;;3.00;2.63;;;10.50;99.90;;;;;;5029463;28;20482;-52
2022/10/01 02:52:14;;;;;;;3.30;2.50;;;10.60;99.90;;;;;;5029858;28;20495;-52
2022/10/01 02:54:46;;;;;;;2.53;2.33;;;10.60;99.90;;;;;;5029593;28;20442;-51
2022/10/01 02:57:22;;;;;;;4.23;2.27;;;10.70;99.90;;;;;;5029871;28;20478;-52
2022/10/01 02:59:49;;;;;;;2.57;2.37;;;10.70;99.90;;;;;;5029541;28;20969;-52
2022/10/01 03:02:16;;;;;;;2.40;2.20;;;10.80;99.90;;;;;;5029412;28;20534;-52
2022/10/01 03:04:46;;;;;;;2.60;2.40;;;10.80;99.90;;;;;;5028957;28;20452;-53
2022/10/01 03:07:13;;;;;;;3.27;2.33;;;10.80;99.90;;;;;;5029543;28;20515;-52
2022/10/01 03:09:40;;;;;;;2.90;2.43;;;10.70;99.90;;;;;;5029397;28;20464;-52
2022/10/01 03:12:09;;;;;;;2.90;2.13;;;10.70;99.90;;;;;;5029324;28;20443;-51
2022/10/01 03:14:38;;;;;;;3.23;2.70;;;10.70;99.90;;;;;;5028921;28;20439;-52
2022/10/01 03:17:05;;;;;;;2.30;2.10;;;10.70;99.90;;;;;;5029141;28;20478;-52
2022/10/01 03:19:32;;;;;;;2.37;2.13;;;10.70;99.90;;;;;;5029118;28;20474;-52
2022/10/01 03:22:00;;;;;;;3.83;2.60;;;10.80;99.90;;;;;;5028936;28;21121;-52
2022/10/01 03:24:27;;;;;;;2.60;2.33;;;10.70;99.90;;;;;;5029035;28;20550;-51
2022/10/01 03:26:56;;;;;;;2.60;2.40;;;10.70;99.90;;;;;;5029430;28;20449;-52
2022/10/01 03:29:23;;;;;;;3.43;2.63;;;10.60;99.90;;;;;;5029305;28;20469;-52
2022/10/01 03:31:49;;;;;;;2.70;2.50;;;10.60;99.90;;;;;;5029239;28;20447;-52
2022/10/01 03:34:16;;;;;;;2.70;2.50;;;10.70;99.90;;;;;;5028745;28;20455;-51
2022/10/01 03:36:43;;;;;;;2.73;2.40;;;10.70;99.90;;;;;;5028116;28;20570;-52
2022/10/01 03:39:11;;;;;;;2.77;2.57;;;10.70;99.90;;;;;;5028318;28;21001;-52
2022/10/01 03:41:38;;;;;;;5.17;3.03;;;10.60;99.90;;;;;;5028631;28;20526;-52
2022/10/01 03:44:05;;;;;;;4.73;3.30;;;10.40;99.90;;;;;;5028860;28;20446;-51
2022/10/01 03:46:32;;;;;;;4.30;3.90;;;10.20;99.90;;;;;;5028631;28;20435;-51
2022/10/01 03:48:59;;;;;;;3.73;2.60;;;10.00;99.90;;;;;;5028538;28;20883;-52
2022/10/01 03:51:27;;;;;;;4.30;3.37;;;10.00;99.90;;;;;;5028696;28;20442;-52
2022/10/01 03:53:54;;;;;;;3.47;2.50;;;10.10;99.90;;;;;;5028551;28;20543;-52
2022/10/01 03:56:22;;;;;;;4.40;2.67;;;10.20;99.90;;;;;;5028885;28;20485;-52
2022/10/01 03:58:49;;;;;;;3.77;3.37;;;10.30;99.90;;;;;;5028727;28;20534;-52
2022/10/01 04:01:16;;;;;;;4.30;3.13;;;10.40;99.90;;;;;;5028591;28;20533;-53
2022/10/01 04:03:43;;;;;;;3.13;2.83;;;10.00;99.90;;;;;;5028403;28;20442;-51
2022/10/01 04:06:11;;;;;;;3.03;2.73;;;10.00;99.90;;;;;;5028379;28;20757;-51
2022/10/01 04:08:38;;;;;;;2.67;2.47;;;10.10;99.90;;;;;;5028169;28;20924;-50
2022/10/01 04:11:05;;;;;;;3.33;2.63;;;10.20;99.90;;;;;;5028421;28;20467;-50
2022/10/01 04:13:33;;;;;;;4.30;3.33;;;10.40;99.90;;;;;;5028153;28;20439;-50
2022/10/01 04:16:00;;;;;;;4.10;3.70;;;10.40;99.90;;;;;;5028315;28;20486;-50
2022/10/01 04:18:27;;;;;;;3.60;3.30;;;10.50;99.90;;;;;;5027926;28;20453;-51
2022/10/01 04:20:54;;;;;;;3.73;3.30;;;10.50;99.90;;;;;;5028250;28;20523;-51
2022/10/01 04:23:22;;;;;;;4.10;3.60;;;10.50;99.90;;;;;;5027986;28;20549;-51
2022/10/01 04:25:49;;;;;;;6.33;4.03;;;10.60;99.90;;;;;;5028314;28;20450;-51
2022/10/01 04:28:16;;;;;;;4.53;4.00;;;10.40;99.90;;;;;;5028028;28;21021;-51
2022/10/01 04:30:45;;;;;;;4.30;3.90;;;10.20;99.90;;;;;;5027939;28;20549;-51
2022/10/01 04:33:14;;;;;;;5.07;4.67;;;10.10;99.90;;;;;;5027987;28;20527;-51
2022/10/01 04:35:42;;;;;;;3.50;3.20;;;10.10;99.90;;;;;;5028311;28;20530;-50
2022/10/01 04:38:13;;;;;;;4.00;3.17;;;10.30;99.90;;;;;;5027647;28;20452;-50
2022/10/01 04:40:40;;;;;;;4.13;2.70;;;10.40;99.90;;;;;;5027982;28;20466;-50
2022/10/01 04:43:08;;;;;;;4.30;3.00;;;10.50;99.90;;;;;;5027782;28;20449;-50
2022/10/01 04:45:35;;;;;;;4.43;3.17;;;10.60;99.90;;;;;;5027730;28;20458;-51
2022/10/01 04:48:04;;;;;;;4.17;3.63;;;10.60;99.90;;;;;;5027687;28;20521;-52
2022/10/01 04:50:32;;;;;;;4.10;3.70;;;10.60;99.90;;;;;;5027797;28;20519;-52
2022/10/01 04:53:00;;;;;;;3.97;3.60;;;10.50;99.90;;;;;;5027672;28;20853;-52
2022/10/01 04:55:26;;;;;;;4.60;4.17;;;10.60;99.90;;;;;;5027903;28;20480;-52
2022/10/01 04:57:53;;;;;;;3.60;3.27;;;10.50;99.90;;;;;;5027622;28;20474;-52
2022/10/01 05:00:23;;;;;;;5.93;3.97;;;10.50;99.90;;;;;;5027612;28;20462;-52
2022/10/01 05:02:51;;;;;;;5.50;4.23;;;10.50;99.90;;;;;;5027839;28;20534;-53
2022/10/01 05:05:21;;;;;;;5.30;4.80;;;10.40;99.90;;;;;;5027642;28;20533;-53
2022/10/01 05:07:48;;;;;;;4.67;4.13;;;10.40;99.90;;;;;;5027805;28;20525;-52
2022/10/01 05:10:17;;;;;;;5.13;4.63;;;10.40;99.90;;;;;;5027552;28;20545;-52
2022/10/01 05:12:45;;;;;;;6.17;4.67;;;10.40;99.90;;;;;;5027772;28;20439;-53
2022/10/01 05:15:12;;;;;;;5.03;4.50;;;10.30;99.90;;;;;;5027272;28;20505;-52
2022/10/01 05:17:39;;;;;;;4.20;3.80;;;10.50;99.90;;;;;;5027638;28;20529;-52
2022/10/01 05:20:08;;;;;;;5.30;3.77;;;10.60;99.90;;;;;;5027109;28;20473;-52
2022/10/01 05:22:36;;;;;;;4.73;4.33;;;10.60;99.90;;;;;;5027450;28;20943;-54
2022/10/01 05:25:05;;;;;;;5.90;5.40;;;10.60;99.90;;;;;;5027498;28;20486;-52
2022/10/01 05:27:35;;;;;;;4.37;3.97;;;10.40;99.90;;;;;;5027660;28;20447;-52
2022/10/01 05:30:02;;;;;;;4.70;4.30;;;10.50;99.90;;;;;;5027422;28;20471;-52
2022/10/01 05:32:30;;;;;;;4.10;3.80;;;10.60;99.90;;;;;;5027974;28;20859;-52
2022/10/01 05:34:57;;;;;;;4.80;4.40;;;10.60;99.90;;;;;;5027053;28;20545;-52
2022/10/01 05:37:23;;;;;;;4.27;3.97;;;10.60;99.90;;;;;;5026641;28;20577;-53
2022/10/01 05:39:52;;;;;;;4.07;3.67;;;10.60;99.90;;;;;;5027434;28;20530;-52
2022/10/01 05:42:18;;;;;;;4.10;3.73;;;10.10;99.90;;;;;;5027325;28;20542;-52
2022/10/01 05:44:45;;;;;;;4.90;4.50;;;9.80;99.90;;;;;;5027221;28;20453;-52
2022/10/01 05:47:13;;;;;;;6.43;3.70;;;9.80;99.90;;;;;;5027216;28;20450;-53
2022/10/01 05:49:43;;;;;;;4.90;4.50;;;9.90;99.90;;;;;;5026849;28;20562;-54
2022/10/01 05:52:10;;;;;;;4.50;4.10;;;9.90;99.90;;;;;;5027001;28;20451;-52
2022/10/01 05:54:37;;;;;;;5.00;4.50;;;10.10;99.90;;;;;;5027204;28;20617;-52
2022/10/01 05:57:06;;;;;;;7.17;4.63;;;10.30;99.90;;;;;;5026972;28;20569;-51
2022/10/01 05:59:34;;;;;;;5.50;4.37;;;10.50;99.90;;;;;;5028512;28;20828;-53
2022/10/01 06:02:02;;;;;;;6.90;5.43;;;10.60;99.90;;;;;;5030722;28;20450;-51
2022/10/01 06:04:29;;;;;;;6.13;5.60;;;10.60;99.90;;;;;;5029768;28;20938;-51
2022/10/01 06:06:56;;;;;;;6.23;5.70;;;10.60;99.90;;;;;;5030654;28;20999;-51
2022/10/01 06:09:23;;;;;;;5.13;4.63;;;10.60;99.90;;;;;;5030394;28;20546;-51
2022/10/01 06:11:50;;;;;;;5.67;4.73;;;10.70;99.90;;;;;;5031536;28;20448;-52
2022/10/01 06:14:18;;;;;;;5.37;4.47;;;10.60;99.90;;;;;;5031083;28;20442;-51
2022/10/01 06:16:45;;;;;;;5.33;4.20;;;10.70;99.90;;;;;;5030731;28;20502;-51
2022/10/01 06:19:12;;;;;;;5.67;4.87;;;10.80;99.90;;;;;;5029569;28;20471;-51
2022/10/01 06:21:39;;;;;;;7.10;5.97;;;10.80;99.90;;;;;;5030266;28;20442;-51
2022/10/01 06:24:06;;;;;;;6.23;5.63;;;10.80;99.90;;;;;;5030314;28;20529;-51
2022/10/01 06:26:33;;;;;;;5.50;5.00;;;10.80;99.90;;;;;;5029890;28;20446;-52
2022/10/01 06:29:00;;;;;;;6.37;5.77;;;10.80;99.90;;;;;;5030066;28;20476;-51
2022/10/01 06:31:28;;;;;;;6.60;6.00;;;10.90;99.90;;;;;;5029864;28;20541;-52
2022/10/01 06:33:55;;;;;;;6.30;4.93;;;10.90;99.90;;;;;;5029948;28;20534;-52
2022/10/01 06:36:22;;;;;;;5.13;4.70;;;10.90;99.90;;;;;;5029937;28;20529;-51
2022/10/01 06:38:49;;;;;;;5.23;4.73;;;10.90;99.90;;;;;;5029576;28;20447;-51
2022/10/01 06:41:16;;;;;;;8.50;5.30;;;11.00;99.90;;;;;;5029691;28;20887;-51
2022/10/01 06:43:43;;;;;;;4.67;4.37;;;11.00;99.90;;;;;;5029472;28;20445;-51
2022/10/01 06:46:10;;;;;;;5.10;4.70;;;11.00;99.90;;;;;;5029848;28;20534;-51
2022/10/01 06:48:38;;;;;;;4.90;4.50;;;10.90;99.90;;;;;;5029571;28;20795;-51
2022/10/01 06:51:05;;;;;;;4.60;4.07;;;10.90;99.90;;;;;;5029516;28;20880;-50
2022/10/01 06:53:32;;;;;;;3.80;3.50;;;11.00;99.90;;;;;;5029321;28;20451;-51
2022/10/01 06:56:04;;;;;;;4.47;3.20;;;11.00;99.90;;;;;;5030057;28;20453;-51
2022/10/01 06:58:31;;;;;;;3.97;3.63;;;11.00;99.90;;;;;;5029603;28;20482;-51
2022/10/01 07:01:00;;;;;;;5.10;3.20;;;11.10;99.90;;;;;;5029705;28;20471;-51
2022/10/01 07:03:27;;;;;;;4.90;4.50;;;11.00;99.90;;;;;;5029416;28;20542;-50
2022/10/01 07:06:01;;;;;;;3.60;3.30;;;10.90;99.90;;;;;;5029630;28;20521;-50
2022/10/01 07:08:28;;;;;;;4.13;2.87;;;11.10;99.90;;;;;;5029508;28;20500;-51
2022/10/01 07:11:00;;;;;;;6.60;3.20;;;11.10;99.90;;;;;;5028017;28;20471;-50
2022/10/01 07:13:26;;;;;;;3.67;3.37;;;10.90;99.90;;;;;;5029613;28;20451;-51
2022/10/01 07:15:53;;;;;;;5.27;3.73;;;10.70;99.90;;;;;;5029460;28;20533;-50
2022/10/01 07:18:20;;;;;;;3.10;2.80;;;10.70;99.90;;;;;;5029220;28;20482;-51
2022/10/01 07:20:47;;;;;;;3.40;2.73;;;10.60;99.90;;;;;;5029624;28;20900;-51
2022/10/01 07:23:16;;;;;;;3.87;3.47;;;10.60;99.90;;;;;;5029851;28;20526;-51
2022/10/01 07:25:43;;;;;;;3.90;3.50;;;10.70;99.90;;;;;;5029987;28;20541;-51
2022/10/01 07:28:15;;;;;;;3.07;2.77;;;10.90;99.90;;;;;;5029845;28;20435;-52
2022/10/01 07:30:42;;;;;;;4.87;2.60;;;11.00;99.90;;;;;;5029903;28;20474;-51
2022/10/01 07:33:09;;;;;;;3.60;2.40;;;11.00;99.90;;;;;;5029387;28;20470;-51
2022/10/01 07:35:37;;;;;;;4.57;4.17;;;11.00;99.90;;;;;;5030164;28;20457;-51
2022/10/01 07:38:06;;;;;;;5.50;4.32;;;11.10;99.90;;;;;;5028928;28;20947;-49
2022/10/01 07:40:34;;;;;;;3.87;3.50;;;11.20;99.90;;;;;;5029676;28;20251;-51
2022/10/01 07:43:01;;;;;;;3.80;3.17;;;11.20;99.90;;;;;;5029316;28;20534;-51
2022/10/01 07:45:28;;;;;;;4.50;2.77;;;11.20;99.90;;;;;;5029542;28;20539;-51
2022/10/01 07:47:58;;;;;;;13.57;8.93;;;11.20;99.90;;;;;;5029434;28;20446;-51
2022/10/01 07:50:26;;;;;;;5.00;3.93;;;11.30;99.90;;;;;;5030026;28;20996;-51
2022/10/01 07:52:54;;;;;;;5.00;3.20;;;11.20;99.90;;;;;;5029569;28;20444;-51
2022/10/01 07:55:21;;;;;;;4.33;2.97;;;11.30;99.90;;;;;;5029959;28;20489;-51
2022/10/01 07:57:53;;;;;;;3.50;2.83;;;11.20;99.90;;;;;;5029381;28;20478;-51
2022/10/01 08:00:21;;;;;;;3.20;2.90;;;11.30;99.90;;;;;;5029181;28;20474;-52
2022/10/01 08:02:49;;;;;;;3.60;3.30;;;11.40;99.90;;;;;;5029433;28;20537;-50
2022/10/01 08:05:20;;;;;;;4.40;4.00;;;11.30;99.90;;;;;;5029576;28;20480;-51
2022/10/01 08:07:48;;;;;;;3.13;2.83;;;11.20;99.90;;;;;;5029067;28;20973;-52
2022/10/01 08:10:16;;;;;;;3.33;3.00;;;11.20;99.90;;;;;;5029099;28;20459;-50
2022/10/01 08:12:43;;;;;;;4.40;2.97;;;11.40;99.90;;;;;;5029109;28;20625;-50
2022/10/01 08:15:14;;;;;;;3.67;2.77;;;11.40;99.90;;;;;;5028936;28;20535;-50
2022/10/01 08:17:41;;;;;;;3.33;2.53;;;11.40;99.90;;;;;;5028966;28;20743;-51
2022/10/01 08:20:10;;;;;;;3.70;2.13;;;11.50;99.90;;;;;;5028255;28;20551;-51
2022/10/01 08:22:37;;;;;;;2.67;2.00;;;11.50;99.90;;;;;;5027215;28;20442;-50
2022/10/01 08:25:05;;;;;;;3.80;2.43;;;11.60;99.90;;;;;;5028626;28;20527;-51
2022/10/01 08:27:32;;;;;;;2.90;2.60;;;11.60;99.90;;;;;;5028098;28;20432;-51
2022/10/01 08:29:59;;;;;;;3.03;2.73;;;11.70;99.90;;;;;;5028546;28;20972;-51
2022/10/01 08:32:27;;;;;;;3.23;2.90;;;11.70;99.90;;;;;;5028953;28;20447;-50
2022/10/01 08:34:57;;;;;;;2.60;2.40;;;11.80;99.90;;;;;;5028373;28;20445;-50
2022/10/01 08:37:26;;;;;;;3.73;3.17;;;11.80;99.90;;;;;;5028705;28;20478;-51
2022/10/01 08:39:54;;;;;;;10.90;3.20;;;11.90;99.90;;;;;;5027277;28;20478;-51
2022/10/01 08:42:35;;;;;;;4.60;2.87;;;11.90;99.90;;;;;;5027120;28;20446;-50
2022/10/01 08:45:09;;;;;;;3.50;2.43;;;12.00;99.90;;;;;;5027151;28;20454;-50
2022/10/01 08:47:41;;;;;;;6.53;2.90;;;12.00;99.90;;;;;;5026615;28;20972;-51
2022/10/01 08:50:15;;;;;;;7.33;4.10;;;12.10;99.90;;;;;;5026792;28;21014;-51
2022/10/01 08:52:50;;;;;;;3.33;2.90;;;12.00;99.90;;;;;;5025577;28;20486;-51
2022/10/01 08:55:21;;;;;;;9.83;6.93;;;12.10;99.90;;;;;;5028191;28;20530;-51
2022/10/01 08:57:53;;;;;;;3.80;3.00;;;12.10;99.90;;;;;;5028162;28;20570;-50
2022/10/01 09:00:21;;;;;;;3.70;3.20;;;12.10;99.90;;;;;;5028175;28;20558;-51
2022/10/01 09:02:51;;;;;;;2.83;2.63;;;12.00;99.90;;;;;;5028436;28;20443;-50
2022/10/01 09:05:23;;;;;;;3.37;3.07;;;12.10;99.90;;;;;;5028303;28;20467;-51
2022/10/01 09:08:00;;;;;;;3.57;3.00;;;12.20;99.90;;;;;;5028561;28;20438;-51
2022/10/01 09:10:39;;;;;;;3.33;2.50;;;12.10;99.90;;;;;;5027070;28;20829;-51
2022/10/01 09:13:33;;;;;;;3.60;3.30;;;12.10;99.90;;;;;;5026679;28;20451;-51
2022/10/01 09:16:08;;;;;;;3.63;3.10;;;12.10;99.90;;;;;;5027111;28;20458;-51
2022/10/01 09:18:46;;;;;;;2.90;2.50;;;12.20;99.90;;;;;;5026797;28;20557;-50
2022/10/01 09:21:19;;;;;;;3.43;2.90;;;12.30;99.90;;;;;;5026782;28;20532;-50
2022/10/01 09:23:58;;;;;;;6.00;5.50;;;12.30;99.90;;;;;;5026610;28;20443;-51
2022/10/01 09:26:25;;;;;;;5.00;4.50;;;12.30;99.90;;;;;;5027740;28;20447;-50
2022/10/01 09:28:53;;;;;;;3.17;2.97;;;12.20;99.90;;;;;;5027644;28;20435;-51
2022/10/01 09:31:25;;;;;;;3.80;3.30;;;12.20;99.90;;;;;;5027410;28;20554;-51
2022/10/01 09:33:58;;;;;;;3.80;3.30;;;12.20;99.90;;;;;;5028252;28;20810;-52
2022/10/01 09:36:34;;;;;;;3.87;2.93;;;12.30;99.90;;;;;;5031157;28;20442;-50
2022/10/01 09:39:12;;;;;;;4.03;2.77;;;12.30;99.90;;;;;;5014332;28;20474;-51
2022/10/01 09:41:39;;;;;;;3.90;3.50;;;12.40;99.90;;;;;;4990601;28;20448;-50
2022/10/01 09:44:13;;;;;;;3.60;3.30;;;12.40;99.90;;;;;;4990114;28;20529;-48
2022/10/01 09:46:40;;;;;;;4.13;3.30;;;12.40;99.90;;;;;;4990803;28;20539;-51
2022/10/01 09:49:13;;;;;;;6.70;4.20;;;12.40;99.90;;;;;;4990047;28;20469;-50
2022/10/01 09:51:44;;;;;;;3.47;2.90;;;12.40;99.90;;;;;;4990487;28;20544;-50
2022/10/01 09:54:16;;;;;;;8.07;4.07;;;12.40;99.90;;;;;;4989889;28;20447;-50
2022/10/01 09:56:47;;;;;;;4.90;3.63;;;12.50;99.90;;;;;;4991387;28;20452;-50
2022/10/01 09:59:21;;;;;;;3.90;3.30;;;12.40;99.90;;;;;;4991638;28;20490;-50
2022/10/01 10:01:51;;;;;;;4.13;3.80;;;12.40;99.90;;;;;;4991908;28;20476;-49
2022/10/01 10:04:22;;;;;;;3.30;2.73;;;12.40;99.90;;;;;;4990422;28;20962;-50
2022/10/01 10:06:50;;;;;;;5.30;4.07;;;12.50;99.90;;;;;;4990252;28;20459;-51
2022/10/01 10:09:20;;;;;;;5.30;3.93;;;12.50;99.90;;;;;;4990580;28;20640;-51
2022/10/01 10:11:48;;;;;;;4.07;3.70;;;12.50;99.90;;;;;;4991094;28;21004;-51
2022/10/01 10:14:18;;;;;;;5.33;3.90;;;12.50;99.90;;;;;;4990715;28;20981;-51
2022/10/01 10:16:47;;;;;;;3.97;3.60;;;12.60;99.90;;;;;;4991118;28;20454;-51
2022/10/01 10:19:23;;;;;;;3.20;2.90;;;12.60;99.90;;;;;;4990680;28;20495;-50
2022/10/01 10:21:53;;;;;;;3.77;3.47;;;12.60;99.90;;;;;;4991020;28;20452;-51
2022/10/01 10:24:26;;;;;;;6.70;3.67;;;12.60;99.90;;;;;;4990954;28;20935;-50
2022/10/01 10:26:54;;;;;;;4.03;3.40;;;12.60;99.90;;;;;;4990506;28;20872;-50
2022/10/01 10:29:27;;;;;;;3.57;3.27;;;12.60;99.90;;;;;;4989935;28;20562;-50
2022/10/01 10:31:54;;;;;;;3.90;3.50;;;12.60;99.90;;;;;;4989548;28;20446;-50
2022/10/01 10:34:31;;;;;;;3.83;2.97;;;12.60;99.90;;;;;;4989989;28;20459;-50
2022/10/01 10:37:03;;;;;;;5.33;4.10;;;12.60;99.90;;;;;;4990262;28;20449;-50
2022/10/01 10:39:35;;;;;;;4.40;3.83;;;12.60;99.90;;;;;;4989868;28;20486;-51
2022/10/01 10:42:03;;;;;;;3.33;3.03;;;12.60;99.90;;;;;;4989931;28;20444;-50
2022/10/01 10:44:34;;;;;;;5.83;3.70;;;12.60;99.90;;;;;;4991189;28;20484;-50
2022/10/01 10:47:05;;;;;;;3.47;3.17;;;12.70;99.90;;;;;;4990903;28;20461;-51
2022/10/01 10:49:33;;;;;;;3.10;2.67;;;12.60;99.90;;;;;;4990440;28;20976;-50
2022/10/01 10:52:03;;;;;;;3.23;2.97;;;12.60;99.90;;;;;;4990252;28;20462;-50
2022/10/01 10:54:32;;;;;;;3.40;2.80;;;12.60;99.90;;;;;;4990215;28;20458;-51
2022/10/01 10:57:02;;;;;;;3.40;3.10;;;12.70;99.90;;;;;;4990659;28;20452;-50
2022/10/01 10:59:31;;;;;;;3.30;2.47;;;12.70;99.90;;;;;;4990484;28;20496;-50
2022/10/01 11:01:59;;;;;;;4.13;3.27;;;12.70;99.90;;;;;;4990552;28;20477;-52
2022/10/01 11:04:41;;;;;;;3.10;2.80;;;12.70;99.90;;;;;;4990094;28;20442;-50
2022/10/01 11:07:12;;;;;;;2.90;2.70;;;12.70;99.90;;;;;;4990609;28;20623;-51
2022/10/01 11:09:56;;;;;;;4.80;3.23;;;12.70;99.90;;;;;;4990474;28;20464;-51
2022/10/01 11:12:39;;;;;;;3.30;3.00;;;12.80;99.90;;;;;;4989735;28;20442;-50
2022/10/01 11:15:20;;;;;;;3.10;2.80;;;12.80;99.90;;;;;;4988883;28;20944;-50
2022/10/01 11:18:11;;;;;;;3.77;3.30;;;12.80;99.90;;;;;;4990649;28;20533;-50
2022/10/01 11:20:49;;;;;;;3.17;2.80;;;12.80;99.90;;;;;;4990431;28;21010;-51
2022/10/01 11:23:40;;;;;;;3.53;2.67;;;12.80;99.90;;;;;;4989935;28;20583;-51
2022/10/01 11:26:18;;;;;;;3.30;3.00;;;12.70;99.90;;;;;;4989259;28;20838;-50
2022/10/01 11:28:54;;;;;;;4.70;2.93;;;12.80;99.90;;;;;;4989718;28;21017;-50
2022/10/01 11:31:35;;;;;;;3.57;3.03;;;12.90;99.90;;;;;;4989075;28;20962;-51
2022/10/01 11:34:17;;;;;;;2.50;2.30;;;12.90;99.90;;;;;;4988979;28;20456;-52
2022/10/01 11:36:57;;;;;;;3.60;3.30;;;12.90;99.90;;;;;;4989915;28;20454;-51
2022/10/01 11:39:27;;;;;;;2.83;2.63;;;12.90;99.90;;;;;;4989653;28;21022;-50
2022/10/01 11:42:00;;;;;;;3.83;3.43;;;12.90;99.90;;;;;;4990080;28;20451;-50
2022/10/01 11:44:32;;;;;;;3.27;2.97;;;13.00;99.90;;;;;;4990057;28;20537;-50
2022/10/01 11:47:03;;;;;;;4.73;4.30;;;12.90;99.90;;;;;;4990388;28;20455;-50
2022/10/01 11:49:52;;;;;;;4.53;3.77;;;13.00;99.90;;;;;;4990195;28;20479;-50
2022/10/01 11:52:35;;;;;;;2.97;2.77;;;13.00;99.90;;;;;;4990620;28;20436;-50
2022/10/01 12:00:59;;;;;;;4.60;3.23;;;13.00;99.90;;;;;;4989874;28;20440;-50
2022/10/01 12:03:32;;;;;;;4.63;4.20;;;12.90;99.90;;;;;;4990122;28;20438;-50
2022/10/01 12:06:00;;;;;;;3.27;2.97;;;13.00;99.90;;;;;;4990063;28;20448;-50
2022/10/01 12:08:31;;;;;;;3.23;2.93;;;12.90;99.90;;;;;;4990499;28;20436;-50
2022/10/01 12:11:10;;;;;;;4.40;4.00;;;13.00;99.90;;;;;;4989853;28;20477;-50
2022/10/01 12:13:42;;;;;;;3.30;3.00;;;13.00;99.90;;;;;;4989699;28;20486;-51
2022/10/01 12:16:21;;;;;;;4.17;3.63;;;13.00;99.90;;;;;;4989773;28;20448;-50
2022/10/01 12:18:54;;;;;;;5.90;3.83;;;13.00;99.90;;;;;;4988861;28;20505;-51
2022/10/01 12:21:25;;;;;;;4.17;3.77;;;13.00;99.90;;;;;;4989890;28;20451;-50
2022/10/01 12:23:57;;;;;;;4.20;3.80;;;13.00;99.90;;;;;;4989802;28;20500;-50
2022/10/01 12:26:35;;;;;;;6.20;4.27;;;13.00;99.90;;;;;;4989755;28;20457;-50
2022/10/01 12:29:12;;;;;;;3.67;3.20;;;13.00;99.90;;;;;;4989330;28;20461;-51
2022/10/01 12:31:49;;;;;;;4.40;3.97;;;13.00;99.90;;;;;;4989000;28;20535;-50
2022/10/01 12:34:24;;;;;;;5.20;4.43;;;13.00;99.90;;;;;;4987729;28;20442;-51
2022/10/01 12:37:03;;;;;;;5.20;4.43;;;13.00;99.90;;;;;;4987594;28;20539;-50
2022/10/01 12:39:43;;;;;;;4.87;4.47;;;13.00;99.90;;;;;;4987326;28;20485;-50
2022/10/01 12:42:35;;;;;;;3.70;3.40;;;13.00;99.90;;;;;;4987862;28;20701;-52
2022/10/01 12:45:18;;;;;;;4.20;3.80;;;13.00;99.90;;;;;;4987650;28;20949;-50
2022/10/01 12:47:52;;;;;;;3.73;3.37;;;13.00;99.90;;;;;;4987484;28;20451;-52
2022/10/01 12:50:27;;;;;;;4.70;4.30;;;12.90;99.90;;;;;;5001134;28;20481;-50
2022/10/01 12:53:10;;;;;;;5.43;4.93;;;12.90;99.90;;;;;;5005120;28;20956;-51
2022/10/01 12:55:54;;;;;;;5.03;4.53;;;13.00;99.90;;;;;;5008568;28;20456;-51
2022/10/01 12:58:39;;;;;;;7.03;5.23;;;13.00;99.90;;;;;;5006416;28;20850;-50
2022/10/01 13:01:14;;;;;;;5.60;5.00;;;13.10;99.90;;;;;;5007590;28;20472;-52
2022/10/01 13:04:07;;;;;;;6.10;5.37;;;13.10;99.90;;;;;;5008167;28;20444;-50
2022/10/01 13:06:43;;;;;;;4.50;4.20;;;13.10;99.90;;;;;;5006050;28;20497;-51
2022/10/01 13:09:20;;;;;;;6.70;5.10;;;13.20;99.90;;;;;;5007494;28;20468;-52
2022/10/01 13:12:00;;;;;;;7.10;6.50;;;13.10;99.90;;;;;;5008805;28;20465;-50